Time;durP1;ratioP1;P1;durP2;ratioP2;P2;SDS_P1;SDS_P2;PMS_P1;PMS_P2;Temp;Humidity;BMP_temperature;BMP_pressure;BME280_temperature;BME280_humidity;BME280_pressure;Samples;Min_cycle;Max_cycle;Signal;HPM_P1;HPM_P2
2022/04/24 00:00:36;;;;;;;23.08;14.88;;;;;;;10.50;68.69;99441.50;4995073;28;20026;-60
2022/04/24 00:03:02;;;;;;;23.17;15.35;;;;;;;10.51;68.96;99438.84;4994342;28;20030;-60
2022/04/24 00:05:27;;;;;;;25.20;15.48;;;;;;;10.56;69.18;99440.47;4995119;28;20046;-60
2022/04/24 00:07:53;;;;;;;21.73;14.27;;;;;;;10.44;68.80;99445.06;4994781;28;20029;-60
2022/04/24 00:10:18;;;;;;;21.42;13.55;;;;;;;10.62;68.28;99436.00;4994661;28;20026;-60
2022/04/24 00:12:44;;;;;;;23.20;15.00;;;;;;;10.73;68.02;99440.06;4995001;28;20036;-60
2022/04/24 00:15:10;;;;;;;25.98;14.10;;;;;;;10.59;67.94;99425.72;4977785;28;20547;-59
2022/04/24 00:17:37;;;;;;;21.13;13.23;;;;;;;10.65;68.30;99428.16;4975292;28;20106;-59
2022/04/24 00:20:03;;;;;;;21.80;15.05;;;;;;;10.60;68.16;99442.09;4975288;28;20027;-60
2022/04/24 00:22:29;;;;;;;24.50;14.98;;;;;;;10.62;68.16;99430.81;4975217;28;20119;-60
2022/04/24 00:24:55;;;;;;;24.63;14.43;;;;;;;10.53;68.51;99424.16;4975282;28;20106;-60
2022/04/24 00:27:20;;;;;;;27.20;15.00;;;;;;;10.50;68.92;99424.22;4975383;28;20034;-60
2022/04/24 00:29:46;;;;;;;23.20;13.77;;;;;;;10.56;68.27;99430.13;4975151;28;20429;-60
2022/04/24 00:32:12;;;;;;;23.95;14.48;;;;;;;10.39;69.31;99412.44;4974994;28;20111;-59
2022/04/24 00:34:37;;;;;;;21.75;14.02;;;;;;;10.39;69.24;99430.53;4974918;28;20026;-59
2022/04/24 00:37:04;;;;;;;20.70;14.05;;;;;;;10.40;69.12;99430.50;4957556;28;20039;-60
2022/04/24 00:39:29;;;;;;;21.30;12.85;;;;;;;10.30;69.65;99421.25;4975130;28;20035;-60
2022/04/24 00:41:55;;;;;;;27.77;13.65;;;;;;;10.35;69.56;99419.44;4974769;28;20431;-60
2022/04/24 00:44:21;;;;;;;24.08;14.45;;;;;;;10.31;69.29;99421.19;4974854;28;20093;-60
2022/04/24 00:46:57;;;;;;;21.20;14.45;;;;;;;10.24;70.23;99411.06;4974805;28;20062;-60
2022/04/24 00:49:23;;;;;;;20.95;13.73;;;;;;;10.17;70.07;99413.75;4974640;28;20027;-60
2022/04/24 00:51:48;;;;;;;23.88;15.23;;;;;;;10.13;70.04;99414.75;4973334;28;20121;-59
2022/04/24 00:54:14;;;;;;;22.90;14.23;;;;;;;10.19;70.12;99417.19;4993875;28;20109;-61
2022/04/24 00:56:42;;;;;;;21.58;13.93;;;;;;;10.21;69.68;99414.56;4994090;28;20475;-60
2022/04/24 00:59:09;;;;;;;22.50;14.02;;;;;;;10.12;70.76;99417.38;4976568;28;20031;-59
2022/04/24 01:01:36;;;;;;;20.35;14.02;;;;;;;10.21;70.27;99421.47;4974458;28;20077;-59
2022/04/24 01:04:04;;;;;;;21.38;13.65;;;;;;;10.05;70.93;99397.69;4974093;28;20496;-59
2022/04/24 01:06:42;;;;;;;23.05;14.45;;;;;;;10.05;70.47;99402.88;4974639;28;20038;-59
2022/04/24 01:09:13;;;;;;;24.13;13.55;;;;;;;9.78;69.99;99344.00;4974189;28;20046;-60
2022/04/24 01:11:39;;;;;;;18.17;12.60;;;;;;;10.06;70.23;99400.28;4974535;28;20023;-60
2022/04/24 01:14:05;;;;;;;22.38;13.00;;;;;;;10.06;70.15;99399.41;4974301;28;20030;-60
2022/04/24 01:16:31;;;;;;;17.83;13.27;;;;;;;10.06;70.29;99395.09;4974329;28;20027;-59
2022/04/24 01:18:57;;;;;;;18.55;12.55;;;;;;;9.94;70.83;99391.03;4956691;28;20066;-59
2022/04/24 01:21:23;;;;;;;17.90;12.75;;;;;;;10.08;70.70;99398.47;4974223;28;20112;-61
2022/04/24 01:23:49;;;;;;;16.38;12.27;;;;;;;10.14;69.88;99400.91;4974156;28;20112;-61
2022/04/24 01:26:14;;;;;;;20.95;12.82;;;;;;;10.13;70.35;99399.22;4974118;28;20031;-61
2022/04/24 01:28:40;;;;;;;21.65;12.63;;;;;;;10.10;70.62;99394.09;4974091;28;20058;-61
2022/04/24 01:31:08;;;;;;;16.70;12.10;;;;;;;10.13;70.26;99396.66;4973655;28;20038;-62
2022/04/24 01:33:33;;;;;;;20.85;12.23;;;;;;;10.04;70.60;99391.69;4974044;28;20357;-61
2022/04/24 01:36:00;;;;;;;21.63;12.82;;;;;;;9.75;70.43;99349.25;4973920;28;20038;-62
2022/04/24 01:38:28;;;;;;;18.80;10.85;;;;;;;10.17;70.17;99387.88;4973949;28;20026;-61
2022/04/24 01:40:54;;;;;;;18.05;11.50;;;;;;;10.14;70.34;99382.78;4973850;28;20047;-60
2022/04/24 01:43:20;;;;;;;18.92;11.77;;;;;;;10.17;69.95;99398.25;4973863;28;20627;-60
2022/04/24 01:45:45;;;;;;;19.83;11.98;;;;;;;10.17;70.44;99389.63;4973877;28;20034;-61
2022/04/24 01:48:11;;;;;;;18.80;11.65;;;;;;;10.18;69.54;99394.78;4973502;28;20034;-61
2022/04/24 01:50:36;;;;;;;20.67;11.30;;;;;;;10.32;70.17;99396.19;4973143;28;20033;-61
2022/04/24 01:53:02;;;;;;;20.77;11.25;;;;;;;10.19;70.04;99395.66;4977347;28;20904;-61
2022/04/24 01:55:28;;;;;;;14.90;10.88;;;;;;;10.15;69.98;99394.84;4992929;28;20562;-60
2022/04/24 01:57:54;;;;;;;17.80;10.25;;;;;;;10.14;70.02;99387.13;4993214;28;20076;-61
2022/04/24 02:00:20;;;;;;;15.13;10.45;;;;;;;10.29;69.83;99394.53;4993150;28;20408;-61
2022/04/24 02:02:46;;;;;;;17.40;11.60;;;;;;;10.20;69.47;99392.16;4993196;28;20446;-62
2022/04/24 02:05:12;;;;;;;20.40;11.20;;;;;;;10.15;70.28;99394.84;4985176;28;20474;-61
2022/04/24 02:07:38;;;;;;;17.13;10.75;;;;;;;10.22;70.25;99384.34;4986888;28;20038;-60
2022/04/24 02:10:04;;;;;;;16.17;11.43;;;;;;;10.23;69.52;99386.88;4992452;28;20169;-60
2022/04/24 02:12:30;;;;;;;17.23;11.20;;;;;;;10.23;69.57;99379.13;4975345;28;20395;-60
2022/04/24 02:14:56;;;;;;;15.90;11.05;;;;;;;10.22;69.98;99376.56;4987374;28;20023;-60
2022/04/24 02:17:22;;;;;;;16.95;11.38;;;;;;;10.11;69.92;99377.69;4993027;28;20030;-59
2022/04/24 02:19:48;;;;;;;18.08;12.27;;;;;;;10.02;70.77;99380.53;4992226;28;20029;-60
2022/04/24 02:22:14;;;;;;;18.30;11.93;;;;;;;10.15;70.58;99374.16;4992944;28;20077;-61
2022/04/24 02:24:39;;;;;;;25.08;16.15;;;;;;;10.08;70.28;99356.25;4992999;28;20105;-61
2022/04/24 02:27:05;;;;;;;29.63;20.17;;;;;;;9.92;70.32;99366.97;4992999;28;20177;-60
2022/04/24 02:29:30;;;;;;;34.88;22.80;;;;;;;10.12;70.18;99378.56;4992953;28;20042;-61
2022/04/24 02:31:57;;;;;;;33.97;23.70;;;;;;;10.17;70.44;99381.88;4992851;28;20034;-61
2022/04/24 02:34:23;;;;;;;36.40;25.23;;;;;;;9.93;71.02;99385.91;4992710;28;20034;-61
2022/04/24 02:36:48;;;;;;;36.67;25.63;;;;;;;10.00;70.63;99382.28;4993131;28;20031;-61
2022/04/24 02:39:14;;;;;;;34.72;25.67;;;;;;;10.04;70.34;99380.50;4992692;28;20029;-60
2022/04/24 02:41:39;;;;;;;32.58;25.08;;;;;;;9.87;71.40;99375.72;4992743;28;20034;-60
2022/04/24 02:44:05;;;;;;;32.25;23.40;;;;;;;9.97;70.88;99364.25;4996216;28;20029;-59
2022/04/24 02:46:30;;;;;;;32.53;22.25;;;;;;;10.09;70.10;99368.28;4996194;28;20400;-59
2022/04/24 02:48:56;;;;;;;28.75;21.55;;;;;;;10.04;70.26;99368.38;4996230;28;20026;-59
2022/04/24 02:51:22;;;;;;;26.98;18.35;;;;;;;9.92;71.41;99376.44;4996243;28;20026;-60
2022/04/24 02:53:48;;;;;;;22.70;15.77;;;;;;;9.94;71.29;99369.50;4996099;28;20534;-60
2022/04/24 02:56:13;;;;;;;21.83;14.02;;;;;;;9.90;70.42;99353.19;4996085;28;20038;-61
2022/04/24 02:58:39;;;;;;;20.42;13.35;;;;;;;9.78;71.98;99367.28;4996082;28;20030;-61
2022/04/24 03:01:05;;;;;;;17.35;12.23;;;;;;;9.93;71.10;99362.63;4994814;28;20030;-61
2022/04/24 03:03:31;;;;;;;17.25;11.85;;;;;;;9.94;70.53;99375.53;4996050;28;20050;-62
2022/04/24 03:05:56;;;;;;;19.55;12.05;;;;;;;9.81;71.56;99366.38;4995925;28;20041;-60
2022/04/24 03:08:22;;;;;;;18.67;12.77;;;;;;;9.82;71.49;99370.66;4978402;28;20018;-61
2022/04/24 03:10:48;;;;;;;21.42;10.80;;;;;;;10.09;70.23;99379.50;4995907;28;20026;-60
2022/04/24 03:13:14;;;;;;;17.48;11.60;;;;;;;9.95;70.61;99377.22;4996048;28;20085;-60
2022/04/24 03:15:39;;;;;;;17.30;12.63;;;;;;;10.03;70.54;99374.44;4995538;28;20034;-60
2022/04/24 03:18:06;;;;;;;17.92;12.15;;;;;;;10.04;70.61;99376.16;4995165;28;20033;-61
2022/04/24 03:20:32;;;;;;;17.95;11.98;;;;;;;10.07;70.20;99380.41;4982427;28;20038;-60
2022/04/24 03:22:57;;;;;;;17.55;12.38;;;;;;;9.99;70.86;99385.75;4995791;28;20117;-59
2022/04/24 03:25:23;;;;;;;16.40;11.68;;;;;;;10.03;70.62;99379.63;4995791;28;20073;-60
2022/04/24 03:27:49;;;;;;;20.30;12.32;;;;;;;10.07;69.86;99386.41;4995736;28;20475;-59
2022/04/24 03:30:15;;;;;;;20.77;12.45;;;;;;;10.01;71.32;99382.25;4995493;28;20034;-60
2022/04/24 03:32:41;;;;;;;26.70;12.23;;;;;;;10.06;70.21;99386.47;4995449;28;20041;-60
2022/04/24 03:35:09;;;;;;;23.30;13.25;;;;;;;9.97;70.92;99374.59;4995517;28;20531;-60
2022/04/24 03:37:35;;;;;;;20.40;12.98;;;;;;;10.00;70.84;99377.09;4995718;28;20157;-60
2022/04/24 03:40:02;;;;;;;20.05;13.10;;;;;;;9.90;71.27;99385.97;4995168;28;20034;-60
2022/04/24 03:42:28;;;;;;;16.52;12.07;;;;;;;9.76;71.51;99387.16;4995472;28;20019;-61
2022/04/24 03:44:55;;;;;;;19.50;12.40;;;;;;;9.70;71.90;99381.28;4995149;28;20068;-60
2022/04/24 03:47:21;;;;;;;18.80;12.23;;;;;;;9.81;71.35;99382.72;4995237;28;20105;-62
2022/04/24 03:49:46;;;;;;;20.15;13.02;;;;;;;9.86;70.92;99385.19;4994979;28;20506;-62
2022/04/24 03:52:12;;;;;;;20.27;13.63;;;;;;;9.87;70.94;99379.13;4995179;28;20088;-60
2022/04/24 03:54:38;;;;;;;23.75;13.07;;;;;;;9.94;71.70;99380.69;5009880;28;20102;-59
2022/04/24 03:57:04;;;;;;;21.98;14.00;;;;;;;9.69;70.60;99336.47;4993660;28;20022;-60
2022/04/24 03:59:30;;;;;;;21.13;14.07;;;;;;;9.99;70.89;99378.84;4991493;28;20072;-60
2022/04/24 04:01:55;;;;;;;18.50;14.07;;;;;;;10.02;70.34;99381.38;4976741;28;20027;-60
2022/04/24 04:04:21;;;;;;;20.05;13.57;;;;;;;10.01;70.59;99374.47;4994647;28;20090;-61
2022/04/24 04:06:46;;;;;;;22.08;14.35;;;;;;;10.00;70.33;99384.88;4994337;28;20391;-61
2022/04/24 04:09:12;;;;;;;17.73;13.93;;;;;;;10.08;70.63;99376.94;4976639;28;20073;-60
2022/04/24 04:11:38;;;;;;;19.45;14.13;;;;;;;10.20;70.33;99379.22;4994348;28;20038;-60
2022/04/24 04:14:03;;;;;;;21.60;14.35;;;;;;;10.22;69.80;99379.16;4994248;28;20027;-60
2022/04/24 04:16:29;;;;;;;20.20;14.35;;;;;;;10.18;69.79;99383.59;4988593;28;20076;-60
2022/04/24 04:18:55;;;;;;;18.75;14.88;;;;;;;10.06;70.62;99379.56;4993377;28;20035;-60
2022/04/24 04:21:20;;;;;;;25.10;16.08;;;;;;;10.08;70.50;99376.94;4993986;28;20463;-60
2022/04/24 04:23:46;;;;;;;22.50;15.85;;;;;;;10.00;70.52;99370.22;4994104;28;20023;-60
2022/04/24 04:26:11;;;;;;;22.95;16.58;;;;;;;10.02;70.59;99378.78;4993874;28;20447;-60
2022/04/24 04:28:37;;;;;;;22.30;16.83;;;;;;;9.98;70.98;99368.56;4994023;28;20030;-60
2022/04/24 04:31:03;;;;;;;22.58;16.30;;;;;;;10.04;69.98;99370.97;4993761;28;20032;-60
2022/04/24 04:33:28;;;;;;;22.73;15.93;;;;;;;10.00;69.98;99359.88;4976339;28;20022;-59
2022/04/24 04:35:54;;;;;;;22.58;16.52;;;;;;;10.18;69.54;99368.91;4993721;28;20495;-60
2022/04/24 04:38:19;;;;;;;24.10;18.88;;;;;;;9.91;71.23;99370.41;5008569;28;20069;-60
2022/04/24 04:40:45;;;;;;;22.15;17.98;;;;;;;9.96;70.67;99371.19;4993684;28;20080;-60
2022/04/24 04:43:11;;;;;;;27.13;19.08;;;;;;;9.80;71.05;99362.06;4993433;28;20061;-60
2022/04/24 04:45:36;;;;;;;27.88;19.63;;;;;;;9.79;71.53;99366.41;4992979;28;20042;-60
2022/04/24 04:48:03;;;;;;;25.20;18.15;;;;;;;9.80;70.53;99351.72;4993317;28;20037;-61
2022/04/24 04:50:28;;;;;;;25.17;18.33;;;;;;;10.01;70.29;99352.94;4993390;28;20030;-60
2022/04/24 04:52:54;;;;;;;27.23;19.02;;;;;;;10.01;69.82;99345.19;4993304;28;20081;-61
2022/04/24 04:55:19;;;;;;;24.70;18.75;;;;;;;10.17;69.77;99346.47;4975742;28;20027;-61
2022/04/24 04:57:46;;;;;;;28.33;18.38;;;;;;;10.10;69.99;99359.63;4993224;28;20026;-61
2022/04/24 05:00:13;;;;;;;22.38;17.63;;;;;;;10.00;70.48;99354.69;4975664;28;20038;-61
2022/04/24 05:02:40;;;;;;;25.38;18.60;;;;;;;10.18;69.86;99353.38;4993073;28;20026;-61
2022/04/24 05:05:07;;;;;;;23.50;16.90;;;;;;;10.21;69.51;99351.59;4992920;28;20101;-60
2022/04/24 05:07:33;;;;;;;25.10;16.38;;;;;;;10.29;69.73;99360.00;4992956;28;20085;-60
2022/04/24 05:09:59;;;;;;;20.55;16.30;;;;;;;10.31;69.19;99360.84;4975842;28;20507;-60
2022/04/24 05:12:28;;;;;;;21.90;16.58;;;;;;;10.32;69.26;99350.44;4998179;28;20034;-60
2022/04/24 05:15:10;;;;;;;25.25;16.90;;;;;;;10.16;69.28;99329.28;5005763;28;20054;-61
2022/04/24 05:17:36;;;;;;;20.27;15.32;;;;;;;10.44;68.14;99358.81;4970893;28;20041;-62
2022/04/24 05:20:07;;;;;;;22.65;15.65;;;;;;;10.31;68.99;99358.25;4971104;28;20483;-61
2022/04/24 05:22:33;;;;;;;20.27;15.30;;;;;;;10.09;70.16;99361.38;4992475;28;20022;-60
2022/04/24 05:24:59;;;;;;;21.08;15.50;;;;;;;10.18;69.31;99361.13;4992709;28;20407;-60
2022/04/24 05:27:26;;;;;;;21.98;16.60;;;;;;;10.11;70.52;99362.19;4992465;28;20027;-60
2022/04/24 05:29:51;;;;;;;24.27;14.88;;;;;;;10.14;69.63;99367.28;4992228;28;20026;-60
2022/04/24 05:32:17;;;;;;;20.73;14.48;;;;;;;10.29;69.77;99360.00;4992730;28;20048;-60
2022/04/24 05:34:43;;;;;;;21.98;14.05;;;;;;;10.33;69.83;99353.88;4991937;28;20101;-61
2022/04/24 05:37:09;;;;;;;21.60;13.82;;;;;;;10.35;69.43;99352.97;4991145;28;20126;-60
2022/04/24 05:39:36;;;;;;;22.95;13.73;;;;;;;10.52;68.93;99364.63;4990735;28;20051;-61
2022/04/24 05:42:01;;;;;;;19.50;14.18;;;;;;;10.49;68.60;99360.38;4992313;28;20452;-61
2022/04/24 05:44:27;;;;;;;17.98;13.80;;;;;;;10.49;68.74;99360.38;4991392;28;20034;-61
2022/04/24 05:46:53;;;;;;;17.85;14.15;;;;;;;10.51;68.76;99356.00;4992050;28;20022;-60
2022/04/24 05:49:19;;;;;;;16.83;13.82;;;;;;;10.47;68.46;99354.38;4992632;28;20077;-60
2022/04/24 05:51:44;;;;;;;20.20;13.65;;;;;;;10.34;69.69;99355.59;4992646;28;20034;-60
2022/04/24 05:54:11;;;;;;;20.23;12.82;;;;;;;10.47;68.76;99354.38;4992670;28;20030;-60
2022/04/24 05:56:38;;;;;;;19.45;12.88;;;;;;;10.48;69.18;99352.66;4992507;28;20113;-61
2022/04/24 05:59:04;;;;;;;18.05;12.27;;;;;;;10.47;68.80;99348.38;4972282;28;20097;-60
2022/04/24 06:01:30;;;;;;;19.33;12.52;;;;;;;10.44;68.93;99340.69;4989774;28;20053;-61
2022/04/24 06:03:56;;;;;;;18.83;12.27;;;;;;;10.56;68.38;99349.84;4991744;28;20474;-60
2022/04/24 06:06:21;;;;;;;21.58;12.20;;;;;;;10.40;69.06;99334.72;4992268;28;20038;-59
2022/04/24 06:08:47;;;;;;;19.30;12.57;;;;;;;10.58;68.98;99329.97;4991529;28;20053;-60
2022/04/24 06:11:12;;;;;;;17.80;12.35;;;;;;;10.53;69.09;99317.13;4991513;28;20038;-59
2022/04/24 06:13:39;;;;;;;16.77;11.57;;;;;;;10.62;68.35;99331.59;4989417;28;20037;-62
2022/04/24 06:16:05;;;;;;;21.30;12.07;;;;;;;10.58;68.56;99322.19;4989869;28;20054;-63
2022/04/24 06:18:31;;;;;;;23.42;11.40;;;;;;;10.48;68.62;99322.44;4993486;28;20072;-62
2022/04/24 06:20:57;;;;;;;16.45;11.70;;;;;;;10.59;68.55;99323.88;4995645;28;20026;-60
2022/04/24 06:23:24;;;;;;;17.13;11.50;;;;;;;10.73;68.43;99328.69;4995653;28;20026;-60
2022/04/24 06:25:50;;;;;;;16.10;11.73;;;;;;;10.77;67.88;99320.78;4995265;28;20487;-61
2022/04/24 06:28:16;;;;;;;19.48;11.18;;;;;;;10.73;68.22;99326.09;4995677;28;20077;-60
2022/04/24 06:30:42;;;;;;;17.80;11.68;;;;;;;10.82;68.15;99320.66;4995103;28;20034;-59
2022/04/24 06:33:11;;;;;;;17.13;11.38;;;;;;;10.83;68.13;99324.94;4989263;28;20125;-61
2022/04/24 06:35:37;;;;;;;14.18;11.32;;;;;;;10.88;67.78;99325.66;4973558;28;20041;-60
2022/04/24 06:38:03;;;;;;;16.67;10.73;;;;;;;11.06;67.99;99332.06;5011758;28;20061;-61
2022/04/24 06:40:29;;;;;;;18.65;10.70;;;;;;;11.09;67.39;99323.31;5014675;28;20105;-60
2022/04/24 06:43:04;;;;;;;15.55;10.52;;;;;;;11.29;67.07;99328.78;5012262;28;20455;-60
2022/04/24 06:45:35;;;;;;;15.20;10.70;;;;;;;11.05;67.03;99283.72;4996652;28;20033;-61
2022/04/24 06:48:06;;;;;;;20.95;11.27;;;;;;;11.20;66.82;99327.31;4995308;28;20112;-61
2022/04/24 06:50:33;;;;;;;19.93;11.13;;;;;;;11.16;67.02;99289.44;4995485;28;20095;-63
2022/04/24 06:53:00;;;;;;;15.98;10.60;;;;;;;11.26;66.80;99308.16;4994931;28;20033;-63
2022/04/24 06:55:27;;;;;;;19.77;10.40;;;;;;;11.14;66.76;99321.47;4980216;28;20042;-63
2022/04/24 06:57:53;;;;;;;17.88;11.52;;;;;;;11.43;66.28;99322.31;4995264;28;20031;-61
2022/04/24 07:00:20;;;;;;;14.63;10.70;;;;;;;11.38;66.64;99320.72;4977475;28;20031;-60
2022/04/24 07:02:47;;;;;;;18.08;11.07;;;;;;;11.53;66.12;99314.22;4995099;28;20066;-60
2022/04/24 07:05:13;;;;;;;16.30;10.95;;;;;;;11.52;65.74;99309.06;4995092;28;20050;-61
2022/04/24 07:07:39;;;;;;;17.27;11.00;;;;;;;11.54;65.04;99313.31;4994986;28;20084;-60
2022/04/24 07:10:05;;;;;;;17.23;10.40;;;;;;;11.51;65.84;99309.97;4994771;28;20489;-60
2022/04/24 07:12:30;;;;;;;20.83;10.98;;;;;;;11.56;65.86;99311.53;4984873;28;20030;-60
2022/04/24 07:14:56;;;;;;;15.00;10.07;;;;;;;11.46;65.62;99315.31;4983107;28;20031;-61
2022/04/24 07:17:22;;;;;;;21.23;10.88;;;;;;;11.46;65.54;99315.31;4980341;28;20022;-60
2022/04/24 07:19:48;;;;;;;21.02;10.13;;;;;;;11.50;65.10;99306.53;4978844;28;20031;-60
2022/04/24 07:22:16;;;;;;;20.88;10.95;;;;;;;11.60;64.92;99293.25;4987535;28;20038;-60
2022/04/24 07:24:42;;;;;;;22.85;11.80;;;;;;;11.52;65.48;99306.47;4977424;28;20404;-61
2022/04/24 07:27:07;;;;;;;20.23;10.85;;;;;;;11.78;64.72;99308.22;4975305;28;20106;-61
2022/04/24 07:29:33;;;;;;;18.83;10.50;;;;;;;11.80;64.26;99318.56;4974262;28;20110;-61
2022/04/24 07:31:58;;;;;;;20.98;9.75;;;;;;;11.96;63.61;99296.44;4979291;28;20049;-61
2022/04/24 07:34:24;;;;;;;26.02;10.50;;;;;;;11.85;63.90;99283.78;4975024;28;20026;-61
2022/04/24 07:36:49;;;;;;;20.45;10.65;;;;;;;12.08;63.54;99289.97;4975136;28;20110;-61
2022/04/24 07:39:15;;;;;;;25.15;10.27;;;;;;;12.11;62.92;99282.09;4974944;28;20039;-61
2022/04/24 07:41:41;;;;;;;17.92;10.15;;;;;;;11.99;62.39;99282.53;4977894;28;20085;-61
2022/04/24 07:44:06;;;;;;;25.33;9.38;;;;;;;12.17;62.19;99281.03;4986618;28;20031;-61
2022/04/24 07:46:34;;;;;;;17.15;10.02;;;;;;;12.24;61.94;99283.38;4975388;28;20031;-62
2022/04/24 07:49:00;;;;;;;18.63;9.50;;;;;;;12.21;61.92;99275.69;4983023;28;20034;-61
2022/04/24 07:51:25;;;;;;;14.63;9.18;;;;;;;12.27;61.57;99287.63;4974804;28;20105;-61
2022/04/24 07:53:51;;;;;;;22.90;9.50;;;;;;;12.48;60.60;99280.78;4974787;28;20063;-61
2022/04/24 07:56:16;;;;;;;21.70;9.50;;;;;;;12.70;60.60;99277.44;4975064;28;20031;-62
2022/04/24 07:58:42;;;;;;;14.27;8.43;;;;;;;12.67;59.23;99287.91;4974547;28;20495;-61
2022/04/24 08:01:10;;;;;;;14.48;9.00;;;;;;;12.69;59.70;99283.53;4974491;28;20444;-61
2022/04/24 08:03:36;;;;;;;17.27;9.88;;;;;;;12.87;59.79;99284.59;4980700;28;20089;-61
2022/04/24 08:06:01;;;;;;;17.35;8.90;;;;;;;12.67;59.30;99282.72;4976243;28;20062;-61
2022/04/24 08:08:27;;;;;;;16.92;9.10;;;;;;;12.62;59.10;99276.88;4988327;28;20064;-61
2022/04/24 08:10:57;;;;;;;15.43;8.55;;;;;;;12.57;59.15;99270.09;4974786;28;20472;-60
2022/04/24 08:13:24;;;;;;;17.83;8.50;;;;;;;12.80;59.19;99273.59;4974551;28;20035;-61
2022/04/24 08:15:50;;;;;;;16.00;7.78;;;;;;;12.99;57.84;99267.69;4976279;28;20033;-61
2022/04/24 08:18:17;;;;;;;14.38;8.80;;;;;;;12.93;58.05;99261.81;4978916;28;20042;-60
2022/04/24 08:20:44;;;;;;;20.85;9.50;;;;;;;13.04;57.88;99264.00;4974552;28;20027;-59
2022/04/24 08:23:11;;;;;;;14.70;9.27;;;;;;;12.90;56.67;99220.34;4973168;28;20125;-59
2022/04/24 08:25:37;;;;;;;13.75;9.02;;;;;;;13.30;57.99;99275.16;4974833;28;20029;-61
2022/04/24 08:28:10;;;;;;;15.98;8.80;;;;;;;13.27;56.67;99283.91;4974384;28;20022;-61
2022/04/24 08:30:41;;;;;;;20.48;8.85;;;;;;;12.99;57.37;99211.34;4985480;28;20109;-58
2022/04/24 08:33:07;;;;;;;16.67;9.07;;;;;;;13.44;56.69;99256.44;4993829;28;20570;-60
2022/04/24 08:35:33;;;;;;;17.33;9.18;;;;;;;13.33;56.17;99256.81;4975328;28;20483;-60
2022/04/24 08:37:59;;;;;;;16.58;7.88;;;;;;;13.21;56.55;99255.56;4993530;28;20030;-59
2022/04/24 08:40:25;;;;;;;14.40;8.60;;;;;;;13.46;56.14;99258.03;4986286;28;20042;-59
2022/04/24 08:42:55;;;;;;;17.10;9.07;;;;;;;13.32;56.39;99255.13;4973027;28;20064;-60
2022/04/24 08:45:25;;;;;;;16.00;8.32;;;;;;;13.18;55.50;99203.69;4993685;28;20058;-60
2022/04/24 08:47:51;;;;;;;25.00;9.43;;;;;;;13.74;54.61;99258.69;4985294;28;20037;-60
2022/04/24 08:50:18;;;;;;;20.30;8.98;;;;;;;13.48;54.48;99203.34;4973840;28;20027;-59
2022/04/24 08:52:46;;;;;;;13.82;8.38;;;;;;;13.86;54.12;99252.97;4975137;28;20117;-60
2022/04/24 08:55:12;;;;;;;18.73;8.57;;;;;;;13.64;53.95;99251.25;4993253;28;20042;-59
2022/04/24 08:57:38;;;;;;;15.40;8.00;;;;;;;13.79;53.93;99243.72;4993319;28;20108;-59
2022/04/24 09:00:07;;;;;;;12.70;7.50;;;;;;;13.99;54.55;99253.28;4975538;28;20105;-59
2022/04/24 09:02:34;;;;;;;12.32;7.85;;;;;;;14.06;52.63;99243.47;4990964;28;20073;-58
2022/04/24 09:04:59;;;;;;;16.30;8.35;;;;;;;14.26;52.95;99245.22;4981708;28;20092;-59
2022/04/24 09:07:34;;;;;;;11.43;7.75;;;;;;;14.10;52.45;99193.78;4991774;28;20275;-60
2022/04/24 09:10:04;;;;;;;13.07;8.13;;;;;;;14.19;52.38;99194.31;4991366;28;20042;-59
2022/04/24 09:12:30;;;;;;;15.27;7.35;;;;;;;14.69;51.88;99243.31;4974574;28;20026;-60
2022/04/24 09:14:58;;;;;;;15.95;8.07;;;;;;;14.75;51.28;99237.84;4980843;28;20027;-60
2022/04/24 09:17:30;;;;;;;14.65;8.18;;;;;;;14.83;51.61;99235.69;4973569;28;20034;-61
2022/04/24 09:19:57;;;;;;;11.05;7.70;;;;;;;14.89;51.51;99233.72;4973319;28;20556;-60
2022/04/24 09:22:24;;;;;;;16.17;8.20;;;;;;;14.98;51.64;99235.94;4973442;28;20118;-59
2022/04/24 09:24:55;;;;;;;13.13;7.82;;;;;;;15.12;50.86;99232.66;4973486;28;20026;-60
2022/04/24 09:27:32;;;;;;;;;;;;;;;15.42;50.81;99232.09;4986351;28;20036;-58
2022/04/24 09:30:12;;;;;;;9.55;7.30;;;;;;;15.09;49.88;99178.88;4992706;28;19980;-60
2022/04/24 09:32:51;;;;;;;13.80;7.53;;;;;;;15.60;49.16;99212.06;4991596;28;20033;-61
2022/04/24 09:35:29;;;;;;;14.23;8.35;;;;;;;15.63;49.97;99214.53;4980969;28;20119;-61
2022/04/24 09:38:17;;;;;;;13.15;7.63;;;;;;;15.65;49.09;99213.53;4980400;28;20026;-60
2022/04/24 09:40:45;;;;;;;12.57;7.57;;;;;;;15.30;49.08;99165.69;4991075;28;20490;-61
2022/04/24 09:43:12;;;;;;;15.98;7.18;;;;;;;15.87;49.41;99223.75;4991130;28;20510;-61
2022/04/24 09:45:46;;;;;;;13.52;7.68;;;;;;;15.94;48.60;99208.63;4991200;28;20054;-61
2022/04/24 09:48:16;;;;;;;15.18;7.18;;;;;;;15.86;48.43;99179.44;4989742;28;20148;-59
2022/04/24 09:50:42;;;;;;;12.48;7.10;;;;;;;15.58;48.50;99209.53;4991562;28;20042;-61
2022/04/24 09:53:13;;;;;;;11.30;7.03;;;;;;;15.58;48.44;99159.13;4990783;28;20412;-60
2022/04/24 09:55:41;;;;;;;13.10;6.28;;;;;;;16.01;48.58;99207.38;4981461;28;20034;-60
2022/04/24 09:58:22;;;;;;;8.93;7.10;;;;;;;16.09;47.31;99203.53;4991477;28;20085;-60
2022/04/24 10:00:52;;;;;;;13.25;6.78;;;;;;;16.35;47.69;99203.00;4991416;28;20117;-60
2022/04/24 10:03:19;;;;;;;10.75;7.28;;;;;;;16.23;46.92;99187.97;4990960;28;20527;-59
2022/04/24 10:05:47;;;;;;;9.80;6.50;;;;;;;16.31;46.85;99200.66;4974023;28;20090;-60
2022/04/24 10:08:34;;;;;;;9.18;6.75;;;;;;;16.12;45.96;99190.31;4977078;28;20034;-59
2022/04/24 10:11:20;;;;;;;11.10;7.35;;;;;;;16.27;47.13;99202.56;4976036;28;20101;-60
2022/04/24 10:13:58;;;;;;;11.02;6.32;;;;;;;16.05;46.56;99200.25;4989505;28;20022;-60
2022/04/24 10:16:37;;;;;;;8.60;6.65;;;;;;;15.99;47.13;99196.19;4990816;28;20032;-60
2022/04/24 10:19:39;;;;;;;9.57;6.18;;;;;;;16.22;46.90;99191.53;4991018;28;20110;-61
2022/04/24 10:22:26;;;;;;;14.27;6.70;;;;;;;16.23;46.37;99193.19;4988226;28;20069;-61
2022/04/24 10:25:02;;;;;;;9.98;6.00;;;;;;;16.08;46.22;99145.22;4989310;28;20372;-60
2022/04/24 10:27:36;;;;;;;14.68;6.43;;;;;;;16.37;46.49;99171.56;4991398;28;20027;-60
2022/04/24 10:30:02;;;;;;;15.65;6.15;;;;;;;16.63;46.58;99180.63;4990587;28;20022;-62
2022/04/24 10:32:30;;;;;;;13.52;6.00;;;;;;;16.43;46.22;99194.75;4991351;28;20479;-61
2022/04/24 10:34:56;;;;;;;10.68;6.32;;;;;;;16.32;46.19;99179.66;4992216;28;20039;-60
2022/04/24 10:37:43;;;;;;;15.43;5.60;;;;;;;16.55;46.53;99177.59;4977844;28;20042;-59
2022/04/24 10:40:13;;;;;;;10.98;5.80;;;;;;;16.53;45.98;99185.50;4992029;28;20480;-60
2022/04/24 10:42:39;;;;;;;11.93;6.07;;;;;;;16.34;45.67;99169.97;4992307;28;20042;-60
2022/04/24 10:45:15;;;;;;;9.60;5.55;;;;;;;16.49;45.71;99175.28;4991647;28;20030;-59
2022/04/24 10:47:52;;;;;;;9.27;5.22;;;;;;;16.51;45.81;99186.50;4992240;28;20022;-59
2022/04/24 10:50:20;;;;;;;8.75;5.35;;;;;;;16.68;45.77;99191.66;4991276;28;20040;-60
2022/04/24 10:52:49;;;;;;;10.75;5.70;;;;;;;16.39;46.01;99136.59;4988481;28;20026;-60
2022/04/24 10:55:22;;;;;;;9.38;5.43;;;;;;;16.43;46.20;99155.53;4992196;28;20534;-60
2022/04/24 10:58:00;;;;;;;8.10;5.55;;;;;;;16.41;46.01;99172.25;4992056;28;20034;-59
2022/04/24 11:00:36;;;;;;;11.23;5.82;;;;;;;16.34;46.53;99176.97;4991755;28;20195;-59
2022/04/24 11:03:08;;;;;;;7.82;4.65;;;;;;;15.88;46.30;99128.00;4992168;28;20423;-60
2022/04/24 11:05:40;;;;;;;8.35;4.78;;;;;;;15.76;46.62;99163.41;4977746;28;20419;-59
2022/04/24 11:08:07;;;;;;;11.38;5.15;;;;;;;15.84;47.66;99192.59;4995340;28;20117;-60
2022/04/24 11:10:43;;;;;;;12.65;6.45;;;;;;;15.92;49.02;99199.19;4994812;28;20081;-59
2022/04/24 11:13:14;;;;;;;11.40;5.25;;;;;;;15.70;48.90;99193.28;4995435;28;20387;-59
2022/04/24 11:15:44;;;;;;;7.03;5.50;;;;;;;15.48;51.09;99205.72;4995205;28;20022;-59
2022/04/24 11:18:36;;;;;;;8.13;5.35;;;;;;;15.27;53.58;99218.88;4995033;28;20034;-59
2022/04/24 11:21:04;;;;;;;7.68;5.25;;;;;;;15.09;54.98;99235.41;4991357;28;20065;-61
2022/04/24 11:23:38;;;;;;;7.25;5.00;;;;;;;14.99;55.45;99211.53;4983522;28;20057;-61